createdAt,value
2017-10-31T00:00:32.451Z,56.50
2017-10-31T00:03:00.572Z,56.50
2017-10-31T00:05:28.991Z,56.50
2017-10-31T00:07:57.599Z,56.40
2017-10-31T00:10:26.771Z,56.80
2017-10-31T00:12:54.851Z,56.80
2017-10-31T00:15:23.130Z,56.70
2017-10-31T00:17:51.295Z,56.60
2017-10-31T00:20:19.531Z,56.70
2017-10-31T00:22:47.653Z,56.60
2017-10-31T00:25:16.829Z,57.50
2017-10-31T00:27:44.798Z,56.90
2017-10-31T00:30:12.955Z,57.20
2017-10-31T00:32:41.050Z,57.30
2017-10-31T00:35:09.103Z,57.20
2017-10-31T00:37:37.501Z,57.20
2017-10-31T00:40:05.662Z,57.40
2017-10-31T00:42:33.742Z,57.40
2017-10-31T00:45:02.029Z,57.50
2017-10-31T00:47:29.986Z,57.70
2017-10-31T00:49:58.050Z,58.00
2017-10-31T00:52:26.346Z,57.80
2017-10-31T00:54:54.289Z,58.20
2017-10-31T00:57:22.358Z,58.40
2017-10-31T00:59:50.621Z,58.50
2017-10-31T01:02:19.020Z,58.40
2017-10-31T01:04:47.308Z,58.50
2017-10-31T01:07:15.640Z,58.40
2017-10-31T01:09:43.988Z,58.40
2017-10-31T01:12:12.737Z,58.10
2017-10-31T01:14:40.907Z,58.10
2017-10-31T01:17:09.085Z,58.10
2017-10-31T01:19:37.141Z,58.20
2017-10-31T01:22:05.423Z,58.70
2017-10-31T01:24:33.581Z,59.20
2017-10-31T01:27:01.673Z,58.70
2017-10-31T01:29:30.047Z,58.70
2017-10-31T01:31:58.154Z,58.90
2017-10-31T01:34:26.299Z,58.90
2017-10-31T01:36:54.553Z,58.80
2017-10-31T01:39:22.726Z,59.00
2017-10-31T01:41:50.709Z,59.10
2017-10-31T01:44:18.860Z,59.20
2017-10-31T01:46:46.964Z,59.20
2017-10-31T01:49:15.230Z,59.20
2017-10-31T01:51:43.666Z,59.20
2017-10-31T01:54:11.893Z,59.20
2017-10-31T01:56:41.497Z,59.30
2017-10-31T01:59:09.650Z,59.30
2017-10-31T02:01:37.730Z,59.50
2017-10-31T02:04:05.905Z,59.50
2017-10-31T02:06:34.027Z,59.50
2017-10-31T02:09:02.027Z,59.50
2017-10-31T02:11:30.114Z,59.90
2017-10-31T02:13:58.293Z,59.40
2017-10-31T02:16:26.465Z,59.40
2017-10-31T02:18:55.360Z,59.50
2017-10-31T02:21:23.698Z,59.40
2017-10-31T02:23:51.708Z,59.60
2017-10-31T02:26:19.976Z,59.50
2017-10-31T02:28:48.034Z,59.20
2017-10-31T02:31:16.125Z,59.30
2017-10-31T02:33:44.885Z,60.10
2017-10-31T02:36:13.172Z,59.50
2017-10-31T02:38:53.030Z,59.40
2017-10-31T02:41:21.302Z,59.40
2017-10-31T02:43:49.252Z,59.30
2017-10-31T02:46:17.334Z,59.10
2017-10-31T02:48:45.593Z,58.80
2017-10-31T02:51:13.794Z,58.90
2017-10-31T02:53:42.759Z,59.20
2017-10-31T02:56:11.066Z,59.10
2017-10-31T02:58:39.463Z,59.20
2017-10-31T03:01:08.626Z,59.80
2017-10-31T03:03:36.799Z,59.80
2017-10-31T03:06:04.758Z,59.70
2017-10-31T03:08:32.885Z,59.70
2017-10-31T03:11:01.226Z,59.60
2017-10-31T03:13:29.282Z,59.80
2017-10-31T03:15:57.335Z,59.80
2017-10-31T03:18:25.536Z,59.70
2017-10-31T03:20:53.843Z,59.80
2017-10-31T03:23:22.990Z,59.90
2017-10-31T03:25:51.289Z,60.00
2017-10-31T03:28:19.339Z,59.90
2017-10-31T03:30:47.511Z,59.80
2017-10-31T03:33:15.834Z,59.80
2017-10-31T03:35:44.998Z,59.90
2017-10-31T03:38:13.180Z,59.90
2017-10-31T03:40:41.648Z,60.30
2017-10-31T03:43:11.451Z,60.50
2017-10-31T03:45:39.626Z,60.40
2017-10-31T03:48:08.011Z,60.40
2017-10-31T03:50:36.068Z,60.30
2017-10-31T03:53:04.254Z,60.20
2017-10-31T03:55:32.631Z,60.00
2017-10-31T03:58:01.068Z,59.90
2017-10-31T04:00:29.407Z,59.90
2017-10-31T04:02:58.588Z,60.10
2017-10-31T04:05:26.674Z,60.10
2017-10-31T04:07:54.996Z,60.20
2017-10-31T04:10:23.314Z,60.30
2017-10-31T04:12:51.454Z,60.10
2017-10-31T04:15:19.637Z,60.10
2017-10-31T04:17:47.774Z,60.10
2017-10-31T04:20:15.914Z,60.10
2017-10-31T04:22:44.168Z,60.10
2017-10-31T04:25:12.454Z,60.90
2017-10-31T04:27:40.681Z,60.10
2017-10-31T04:30:08.916Z,60.00
2017-10-31T04:32:37.171Z,60.10
2017-10-31T04:35:05.133Z,60.20
2017-10-31T04:37:33.269Z,60.30
2017-10-31T04:40:01.713Z,60.20
2017-10-31T04:42:30.602Z,60.20
2017-10-31T04:44:58.856Z,60.10
2017-10-31T04:47:27.099Z,60.10
2017-10-31T04:49:55.170Z,60.30
2017-10-31T04:52:23.600Z,60.30
2017-10-31T04:54:52.071Z,60.30
2017-10-31T04:57:20.338Z,60.40
2017-10-31T04:59:48.603Z,60.20
2017-10-31T05:02:16.796Z,59.90
2017-10-31T05:04:44.857Z,59.80
2017-10-31T05:07:13.030Z,59.80
2017-10-31T05:09:41.627Z,59.70
2017-10-31T05:12:10.614Z,59.90
2017-10-31T05:14:38.853Z,59.80
2017-10-31T05:17:06.968Z,60.00
2017-10-31T05:19:35.243Z,60.00
2017-10-31T05:22:03.280Z,60.00
2017-10-31T05:24:31.488Z,60.10
2017-10-31T05:27:00.345Z,60.30
2017-10-31T05:29:28.864Z,60.20
2017-10-31T05:31:56.962Z,60.30
2017-10-31T05:34:24.910Z,60.50
2017-10-31T05:36:53.870Z,60.40
2017-10-31T05:39:21.974Z,60.30
2017-10-31T05:41:51.096Z,60.30
2017-10-31T05:44:19.310Z,60.30
2017-10-31T05:46:47.602Z,60.30
2017-10-31T05:49:16.367Z,60.90
2017-10-31T05:51:44.908Z,60.20
2017-10-31T05:54:13.148Z,59.90
2017-10-31T05:56:41.308Z,60.00
2017-10-31T05:59:10.080Z,60.20
2017-10-31T06:01:38.468Z,60.30
2017-10-31T06:04:06.847Z,60.30
2017-10-31T06:06:34.911Z,60.50
2017-10-31T06:09:03.107Z,60.70
2017-10-31T06:11:31.464Z,60.80
2017-10-31T06:13:59.864Z,60.90
2017-10-31T06:16:29.136Z,61.00
2017-10-31T06:18:57.331Z,61.00
2017-10-31T06:21:25.403Z,61.50
2017-10-31T06:23:59.160Z,60.90
2017-10-31T06:26:32.810Z,61.10
2017-10-31T06:29:06.608Z,61.30
2017-10-31T06:31:55.669Z,61.40
2017-10-31T06:34:24.148Z,61.60
2017-10-31T06:36:52.427Z,61.60
2017-10-31T06:39:20.488Z,61.70
2017-10-31T06:41:48.668Z,61.60
2017-10-31T06:44:17.049Z,61.40
2017-10-31T06:46:45.348Z,62.20
2017-10-31T06:49:14.928Z,61.60
2017-10-31T06:51:43.408Z,61.60
2017-10-31T06:54:12.708Z,61.40
2017-10-31T06:56:40.968Z,61.40
2017-10-31T06:59:09.408Z,61.00
2017-10-31T07:01:37.748Z,60.90
2017-10-31T07:04:07.263Z,60.90
2017-10-31T07:06:36.438Z,61.00
2017-10-31T07:09:04.588Z,60.90
2017-10-31T07:11:33.129Z,61.10
2017-10-31T07:14:01.797Z,61.40
2017-10-31T07:16:31.068Z,61.70
2017-10-31T07:18:59.468Z,61.60
2017-10-31T07:21:28.350Z,61.40
2017-10-31T07:23:56.735Z,61.40
2017-10-31T07:26:25.667Z,62.10
2017-10-31T07:40:13.218Z,59.50
2017-10-31T07:42:42.198Z,60.10
2017-10-31T07:45:10.595Z,60.00
2017-10-31T07:47:39.573Z,61.90
2017-10-31T07:50:08.852Z,60.60
2017-10-31T07:52:37.243Z,60.60
2017-10-31T07:55:06.434Z,60.70
2017-10-31T07:57:34.650Z,60.60
2017-10-31T08:00:02.849Z,60.70
2017-10-31T08:02:31.378Z,60.80
2017-10-31T08:05:00.526Z,60.80
2017-10-31T08:07:28.868Z,60.70
2017-10-31T08:09:57.015Z,60.30
2017-10-31T08:12:25.686Z,60.30
2017-10-31T08:14:54.187Z,60.90
2017-10-31T08:17:23.247Z,60.70
2017-10-31T08:19:51.606Z,60.60
2017-10-31T08:22:20.246Z,60.60
2017-10-31T08:24:49.447Z,59.70
2017-10-31T08:27:18.307Z,59.40
2017-10-31T08:29:47.721Z,58.50
2017-10-31T08:32:16.164Z,58.50
2017-10-31T08:34:44.810Z,58.60
2017-10-31T08:37:14.082Z,58.10
2017-10-31T08:39:42.461Z,58.10
2017-10-31T08:42:10.834Z,57.60
2017-10-31T08:44:40.343Z,57.50
2017-10-31T08:47:08.822Z,57.60
2017-10-31T08:49:38.841Z,57.10
2017-10-31T08:52:07.314Z,57.10
2017-10-31T08:54:35.689Z,57.20
2017-10-31T08:57:03.989Z,57.40
2017-10-31T08:59:33.588Z,57.70
2017-10-31T09:02:03.608Z,57.50
2017-10-31T09:04:32.688Z,57.70
2017-10-31T09:07:00.868Z,57.70
2017-10-31T09:09:29.954Z,57.00
2017-10-31T09:11:58.221Z,57.40
2017-10-31T09:14:26.521Z,57.30
2017-10-31T09:16:56.003Z,56.00
2017-10-31T09:19:24.483Z,56.00
2017-10-31T09:21:52.774Z,55.80
2017-10-31T09:24:21.855Z,54.60
2017-10-31T09:26:50.028Z,54.60
2017-10-31T09:29:18.303Z,53.60
2017-10-31T09:31:46.881Z,52.30
2017-10-31T09:34:15.195Z,52.40
2017-10-31T09:36:44.079Z,52.10
2017-10-31T09:39:13.199Z,51.40
2017-10-31T09:41:41.600Z,51.30
2017-10-31T09:44:09.878Z,50.50
2017-10-31T09:46:38.598Z,50.80
2017-10-31T09:49:07.087Z,50.40
2017-10-31T09:51:36.218Z,50.10
2017-10-31T09:54:04.378Z,50.10
2017-10-31T09:56:32.618Z,49.30
2017-10-31T09:59:01.618Z,48.60
2017-10-31T10:01:30.899Z,48.60
2017-10-31T10:03:59.062Z,48.60
2017-10-31T10:06:27.118Z,48.50
2017-10-31T10:08:55.318Z,48.60
2017-10-31T10:11:23.578Z,48.10
2017-10-31T10:13:51.998Z,47.10
2017-10-31T10:16:21.378Z,47.20
2017-10-31T10:18:49.858Z,47.20
2017-10-31T10:21:18.061Z,47.40
2017-10-31T10:23:47.238Z,47.50
2017-10-31T10:26:16.318Z,47.80
2017-10-31T10:28:44.504Z,47.10
2017-10-31T10:31:13.719Z,46.10
2017-10-31T10:33:41.958Z,46.10
2017-10-31T10:36:10.138Z,45.70
2017-10-31T10:38:38.625Z,46.60
2017-10-31T10:41:06.691Z,46.40
2017-10-31T10:43:35.165Z,46.30
2017-10-31T10:46:03.785Z,45.60
2017-10-31T10:48:31.805Z,45.60
2017-10-31T10:51:00.166Z,44.90
2017-10-31T10:53:28.685Z,44.90
2017-10-31T10:55:57.066Z,46.00
2017-10-31T10:58:26.366Z,45.20
2017-10-31T11:00:55.685Z,44.60
2017-10-31T11:03:23.929Z,44.60
2017-10-31T11:05:52.286Z,44.70
2017-10-31T11:08:20.486Z,44.70
2017-10-31T11:10:48.902Z,44.60
2017-10-31T11:13:17.242Z,43.70
2017-10-31T11:15:45.722Z,44.70
2017-10-31T11:18:13.991Z,45.00
2017-10-31T11:20:42.370Z,44.90
2017-10-31T11:23:11.570Z,44.30
2017-10-31T11:25:39.829Z,44.30
2017-10-31T11:28:08.221Z,44.20
2017-10-31T11:30:36.703Z,44.10
2017-10-31T11:33:05.104Z,44.20
2017-10-31T11:35:34.178Z,43.60
2017-10-31T11:38:03.568Z,44.30
2017-10-31T11:40:32.186Z,44.10
2017-10-31T11:43:01.468Z,43.40
2017-10-31T11:45:30.866Z,43.00
2017-10-31T11:47:59.528Z,43.00
2017-10-31T11:50:28.147Z,42.40
2017-10-31T11:52:57.267Z,43.30
2017-10-31T11:55:25.686Z,43.30
2017-10-31T11:57:54.913Z,44.70
2017-10-31T12:00:24.003Z,44.50
2017-10-31T12:02:52.175Z,44.50
2017-10-31T12:05:21.875Z,45.70
2017-10-31T12:07:50.876Z,45.30
2017-10-31T12:10:19.995Z,45.80
2017-10-31T12:12:48.241Z,45.60
2017-10-31T12:15:16.516Z,46.20
2017-10-31T12:17:45.255Z,47.00
2017-10-31T12:20:13.676Z,47.00
2017-10-31T12:22:41.857Z,48.10
2017-10-31T12:25:10.098Z,48.10
2017-10-31T12:27:38.356Z,48.20
2017-10-31T12:30:06.585Z,48.50
2017-10-31T12:32:34.756Z,48.40
2017-10-31T12:35:03.235Z,48.90
2017-10-31T12:37:31.715Z,49.20
2017-10-31T12:40:00.197Z,48.70
2017-10-31T12:42:29.398Z,49.40
2017-10-31T12:44:57.557Z,49.60
2017-10-31T12:47:26.059Z,49.70
2017-10-31T12:49:54.417Z,49.70
2017-10-31T12:52:22.699Z,49.80
2017-10-31T12:54:51.000Z,50.60
2017-10-31T12:57:20.178Z,50.60
2017-10-31T12:59:48.858Z,50.60
2017-10-31T13:02:17.557Z,50.80
2017-10-31T13:04:46.644Z,50.80
2017-10-31T13:07:15.964Z,51.10
2017-10-31T13:09:45.124Z,50.70
2017-10-31T13:12:13.463Z,50.70
2017-10-31T13:14:42.001Z,50.90
2017-10-31T13:17:11.294Z,51.10
2017-10-31T13:19:40.166Z,51.30
2017-10-31T13:22:08.874Z,51.30
2017-10-31T13:24:37.967Z,51.60
2017-10-31T13:27:07.871Z,51.50
2017-10-31T13:29:36.942Z,51.40
2017-10-31T13:32:06.084Z,51.60
2017-10-31T13:34:35.882Z,51.40
2017-10-31T13:37:05.004Z,51.40
2017-10-31T13:39:34.044Z,51.10
2017-10-31T13:42:03.301Z,51.40
2017-10-31T13:44:32.463Z,51.20
2017-10-31T13:47:01.322Z,51.20
2017-10-31T13:49:30.149Z,51.90
2017-10-31T13:52:00.135Z,51.00
2017-10-31T13:54:28.422Z,51.00
2017-10-31T13:56:57.487Z,50.90
2017-10-31T13:59:26.208Z,50.90
2017-10-31T14:01:56.600Z,50.90
2017-10-31T14:04:25.679Z,50.90
2017-10-31T14:06:54.803Z,50.50
2017-10-31T14:09:23.698Z,50.50
2017-10-31T14:11:52.791Z,50.10
2017-10-31T14:14:21.115Z,51.20
2017-10-31T14:16:49.559Z,50.30
2017-10-31T14:19:19.261Z,50.40
2017-10-31T14:21:48.199Z,50.40
2017-10-31T14:24:16.737Z,50.40
2017-10-31T14:26:45.227Z,50.50
2017-10-31T14:29:13.871Z,50.70
2017-10-31T14:31:42.088Z,50.00
2017-10-31T14:34:11.085Z,50.50
2017-10-31T14:36:40.246Z,49.80
2017-10-31T14:39:08.649Z,49.80
2017-10-31T14:41:37.022Z,49.30
2017-10-31T14:44:04.977Z,49.50
2017-10-31T14:46:33.378Z,49.50
2017-10-31T14:49:01.897Z,49.30
2017-10-31T14:51:30.417Z,49.40
2017-10-31T14:53:58.926Z,49.60
2017-10-31T14:56:28.038Z,49.50
2017-10-31T14:58:56.416Z,49.50
2017-10-31T15:01:25.650Z,49.00
2017-10-31T15:03:54.179Z,49.00
2017-10-31T15:06:23.316Z,49.30
2017-10-31T15:08:51.976Z,49.20
2017-10-31T15:11:21.375Z,49.80
2017-10-31T15:13:49.915Z,49.90
2017-10-31T15:16:17.997Z,49.20
2017-10-31T15:18:47.396Z,49.10
2017-10-31T15:21:15.635Z,49.00
2017-10-31T15:23:44.295Z,48.90
2017-10-31T15:26:12.596Z,49.20
2017-10-31T15:28:41.016Z,49.10
2017-10-31T15:31:09.176Z,48.70
2017-10-31T15:33:37.756Z,50.20
2017-10-31T15:36:05.915Z,49.70
2017-10-31T15:38:34.316Z,50.10
2017-10-31T15:41:02.698Z,51.50
2017-10-31T15:43:30.976Z,52.10
2017-10-31T15:45:59.035Z,52.30
2017-10-31T15:48:27.537Z,52.60
2017-10-31T15:50:55.926Z,52.40
2017-10-31T15:53:25.135Z,52.70
2017-10-31T15:55:53.476Z,52.70
2017-10-31T15:58:21.796Z,52.70
2017-10-31T16:00:50.136Z,53.10
2017-10-31T16:03:18.726Z,53.20
2017-10-31T16:05:47.816Z,53.30
2017-10-31T16:08:16.195Z,53.30
2017-10-31T16:10:44.495Z,53.60
2017-10-31T16:13:13.698Z,53.60
2017-10-31T16:15:42.195Z,53.60
2017-10-31T16:18:10.936Z,53.70
2017-10-31T16:20:39.515Z,53.70
2017-10-31T16:23:09.437Z,53.60
2017-10-31T16:25:38.435Z,53.40
2017-10-31T16:28:07.607Z,53.50
2017-10-31T16:30:37.748Z,53.40
2017-10-31T16:33:07.028Z,53.50
2017-10-31T16:35:35.246Z,53.40
2017-10-31T16:38:03.806Z,53.90
2017-10-31T16:40:33.047Z,53.60
2017-10-31T16:43:01.467Z,53.60
2017-10-31T16:45:30.667Z,53.90
2017-10-31T16:47:59.127Z,53.90
2017-10-31T16:50:27.387Z,53.90
2017-10-31T16:52:55.809Z,54.00
2017-10-31T16:55:23.927Z,53.70
2017-10-31T16:57:52.267Z,54.10
2017-10-31T17:00:21.507Z,54.10
2017-10-31T17:02:49.727Z,54.10
2017-10-31T17:05:18.707Z,54.10
2017-10-31T17:07:46.886Z,54.10
2017-10-31T17:10:15.153Z,54.30
2017-10-31T17:12:43.326Z,54.50
2017-10-31T17:15:11.606Z,54.60
2017-10-31T17:17:39.893Z,54.80
2017-10-31T17:20:08.969Z,54.60
2017-10-31T17:22:37.246Z,54.60
2017-10-31T17:25:05.374Z,54.80
2017-10-31T17:27:33.487Z,54.80
2017-10-31T17:30:01.746Z,54.90
2017-10-31T17:32:30.146Z,54.70
2017-10-31T17:34:58.650Z,54.80
2017-10-31T17:37:28.146Z,54.80
2017-10-31T17:39:57.486Z,54.70
2017-10-31T17:42:26.007Z,54.70
2017-10-31T17:44:54.608Z,54.70
2017-10-31T17:47:22.966Z,54.90
2017-10-31T17:49:51.569Z,55.00
2017-10-31T17:52:21.189Z,54.90
2017-10-31T17:54:50.054Z,54.70
2017-10-31T17:57:18.213Z,54.70
2017-10-31T17:59:46.389Z,55.00
2017-10-31T18:02:14.785Z,54.90
2017-10-31T18:04:43.083Z,54.70
2017-10-31T18:07:12.241Z,54.80
2017-10-31T18:09:40.782Z,54.80
2017-10-31T18:12:09.208Z,54.80
2017-10-31T18:14:37.782Z,55.00
2017-10-31T18:17:05.922Z,55.10
2017-10-31T18:19:34.562Z,54.80
2017-10-31T18:22:03.630Z,55.00
2017-10-31T18:24:32.022Z,55.00
2017-10-31T18:27:00.482Z,54.90
2017-10-31T18:29:28.701Z,55.00
2017-10-31T18:31:57.461Z,54.90
2017-10-31T18:34:27.042Z,55.10
2017-10-31T18:36:55.144Z,55.10
2017-10-31T18:39:23.303Z,55.30
2017-10-31T18:41:51.797Z,55.30
2017-10-31T18:44:20.317Z,55.40
2017-10-31T18:46:48.518Z,55.00
2017-10-31T18:49:17.436Z,55.40
2017-10-31T18:51:47.377Z,55.60
2017-10-31T18:54:16.716Z,55.80
2017-10-31T18:56:45.338Z,55.80
2017-10-31T18:59:13.817Z,56.30
2017-10-31T19:01:42.416Z,56.40
2017-10-31T19:04:11.596Z,57.70
2017-10-31T19:06:39.877Z,57.70
2017-10-31T19:09:07.877Z,58.50
2017-10-31T19:11:36.076Z,58.10
2017-10-31T19:14:04.398Z,58.20
2017-10-31T19:16:32.897Z,58.10
2017-10-31T19:19:02.117Z,57.80
2017-10-31T19:21:30.517Z,57.70
2017-10-31T19:23:59.140Z,57.40
2017-10-31T19:26:28.337Z,57.00
2017-10-31T19:28:57.656Z,57.50
2017-10-31T19:31:26.929Z,57.50
2017-10-31T19:33:55.191Z,57.50
2017-10-31T19:36:23.914Z,57.50
2017-10-31T19:38:53.209Z,57.30
2017-10-31T19:41:22.493Z,57.10
2017-10-31T19:43:50.889Z,57.10
2017-10-31T19:46:20.058Z,57.20
2017-10-31T19:48:48.338Z,57.20
2017-10-31T19:51:16.637Z,57.20
2017-10-31T19:53:45.618Z,57.50
2017-10-31T19:56:14.402Z,57.70
2017-10-31T19:58:42.878Z,57.70
2017-10-31T20:01:10.918Z,57.90
2017-10-31T20:03:39.258Z,57.60
2017-10-31T20:06:07.398Z,58.00
2017-10-31T20:08:35.438Z,57.80
2017-10-31T20:11:03.539Z,57.90
2017-10-31T20:13:31.598Z,58.10
2017-10-31T20:15:59.678Z,58.20
2017-10-31T20:18:27.698Z,58.50
2017-10-31T20:20:55.738Z,58.30
2017-10-31T20:23:24.557Z,59.10
2017-10-31T20:25:52.579Z,58.50
2017-10-31T20:28:20.618Z,58.30
2017-10-31T20:30:48.597Z,58.30
2017-10-31T20:33:16.618Z,58.30
2017-10-31T20:35:44.697Z,58.20
2017-10-31T20:38:12.657Z,58.20
2017-10-31T20:40:40.638Z,58.30
2017-10-31T20:43:08.658Z,58.40
2017-10-31T20:45:36.698Z,58.10
2017-10-31T20:48:04.718Z,58.30
2017-10-31T20:50:33.520Z,58.20
2017-10-31T20:53:01.545Z,58.20
2017-10-31T20:55:29.558Z,58.30
2017-10-31T20:57:57.578Z,58.40
2017-10-31T21:00:25.598Z,58.20
2017-10-31T21:02:53.637Z,58.20
2017-10-31T21:05:21.711Z,58.20
2017-10-31T21:07:49.838Z,58.40
2017-10-31T21:10:17.879Z,58.30
2017-10-31T21:12:45.957Z,57.80
2017-10-31T21:15:13.937Z,58.30
2017-10-31T21:17:41.918Z,58.40
2017-10-31T21:20:09.979Z,58.40
2017-10-31T21:22:37.964Z,58.30
2017-10-31T21:25:06.001Z,58.30
2017-10-31T21:27:34.137Z,58.40
2017-10-31T21:30:02.158Z,58.40
2017-10-31T21:32:30.157Z,58.60
2017-10-31T21:34:58.217Z,58.70
2017-10-31T21:37:26.258Z,58.80
2017-10-31T21:39:54.358Z,58.90
2017-10-31T21:42:22.457Z,58.90
2017-10-31T21:44:50.438Z,58.80
2017-10-31T21:47:19.238Z,58.70
2017-10-31T21:49:48.079Z,58.80
2017-10-31T21:52:16.078Z,58.90
2017-10-31T21:54:44.837Z,58.90
2017-10-31T21:57:12.918Z,58.90
2017-10-31T21:59:40.918Z,58.90
2017-10-31T22:02:09.658Z,59.00
2017-10-31T22:04:37.698Z,59.00
2017-10-31T22:07:05.718Z,59.00
2017-10-31T22:09:34.498Z,58.60
2017-10-31T22:12:02.505Z,59.10
2017-10-31T22:14:30.499Z,58.90
2017-10-31T22:16:58.557Z,58.90
2017-10-31T22:19:26.660Z,58.80
2017-10-31T22:21:54.617Z,58.90
2017-10-31T22:24:22.599Z,58.90
2017-10-31T22:26:50.657Z,58.90
2017-10-31T22:29:18.657Z,58.90
2017-10-31T22:31:46.718Z,58.80
2017-10-31T22:34:14.798Z,59.10
2017-10-31T22:36:42.779Z,59.20
2017-10-31T22:39:10.864Z,59.30
2017-10-31T22:41:38.958Z,59.40
2017-10-31T22:44:07.018Z,59.50
2017-10-31T22:46:35.757Z,59.70
2017-10-31T22:49:03.779Z,59.60
2017-10-31T22:51:31.850Z,59.90
2017-10-31T22:53:59.938Z,60.00
2017-10-31T22:56:27.979Z,60.00
2017-10-31T22:58:56.757Z,60.50
2017-10-31T23:01:25.579Z,60.20
2017-10-31T23:03:53.638Z,60.20
2017-10-31T23:06:21.618Z,60.40
2017-10-31T23:08:49.579Z,60.50
2017-10-31T23:11:17.638Z,60.50
2017-10-31T23:13:46.377Z,60.80
2017-10-31T23:16:14.399Z,60.80
2017-10-31T23:18:42.438Z,60.70
2017-10-31T23:21:10.438Z,60.80
2017-10-31T23:23:38.438Z,60.80
2017-10-31T23:26:06.518Z,61.10
2017-10-31T23:28:34.637Z,61.10
2017-10-31T23:31:03.383Z,61.30
2017-10-31T23:33:31.477Z,61.30
2017-10-31T23:35:59.478Z,61.20
2017-10-31T23:38:27.498Z,61.30
2017-10-31T23:40:55.657Z,61.40
2017-10-31T23:43:23.638Z,61.40
2017-10-31T23:45:51.618Z,61.40
2017-10-31T23:48:19.637Z,61.40
2017-10-31T23:50:47.638Z,61.40
2017-10-31T23:53:15.618Z,61.40
2017-10-31T23:55:43.738Z,61.50
2017-10-31T23:58:11.817Z,61.40
